createdAt,value
2022-11-02T00:01:54.462Z,3.33
2022-11-02T00:04:21.710Z,3.72
2022-11-02T00:06:48.969Z,3.20
2022-11-02T00:09:16.071Z,3.28
2022-11-02T00:11:43.251Z,3.20
2022-11-02T00:14:10.336Z,2.83
2022-11-02T00:16:40.304Z,2.72
2022-11-02T00:19:09.120Z,3.05
2022-11-02T00:21:37.604Z,2.72
2022-11-02T00:24:06.429Z,2.97
2022-11-02T00:26:36.603Z,4.00
2022-11-02T00:29:05.712Z,3.33
2022-11-02T00:31:32.944Z,3.08
2022-11-02T00:34:00.030Z,2.70
2022-11-02T00:36:28.145Z,3.03
2022-11-02T00:38:55.295Z,3.28
2022-11-02T00:41:22.908Z,3.22
2022-11-02T00:43:50.037Z,2.97
2022-11-02T00:46:17.093Z,3.00
2022-11-02T00:48:44.300Z,3.35
2022-11-02T00:51:11.417Z,3.00
2022-11-02T00:53:38.635Z,4.03
2022-11-02T00:56:06.384Z,3.13
2022-11-02T00:58:33.526Z,3.47
2022-11-02T01:01:05.612Z,2.63
2022-11-02T01:03:32.773Z,3.40
2022-11-02T01:05:59.949Z,2.97
2022-11-02T01:08:27.272Z,2.78
2022-11-02T01:10:54.334Z,3.03
2022-11-02T01:13:21.399Z,2.63
2022-11-02T01:15:48.552Z,2.75
2022-11-02T01:18:15.588Z,3.08
2022-11-02T01:20:42.949Z,2.97
2022-11-02T01:23:10.016Z,2.67
2022-11-02T01:25:37.101Z,2.45
2022-11-02T01:28:04.609Z,3.13
2022-11-02T01:30:31.799Z,2.70
2022-11-02T01:32:59.361Z,2.50
2022-11-02T01:35:26.460Z,2.83
2022-11-02T01:37:53.502Z,3.75
2022-11-02T01:40:20.699Z,2.90
2022-11-02T01:42:47.842Z,2.90
2022-11-02T01:45:15.044Z,3.78
2022-11-02T01:47:47.767Z,2.70
2022-11-02T01:50:27.821Z,2.40
2022-11-02T01:52:54.970Z,2.30
2022-11-02T01:55:26.056Z,3.20
2022-11-02T01:57:58.320Z,2.90
2022-11-02T02:00:25.478Z,3.75
2022-11-02T02:02:57.905Z,2.60
2022-11-02T02:05:25.883Z,2.80
2022-11-02T02:07:56.854Z,3.40
2022-11-02T02:10:24.487Z,2.67
2022-11-02T02:12:51.873Z,2.90
2022-11-02T02:15:23.076Z,2.95
2022-11-02T02:18:07.990Z,3.13
2022-11-02T02:21:09.507Z,2.55
2022-11-02T02:24:07.656Z,2.75
2022-11-02T02:26:56.658Z,2.85
2022-11-02T02:29:40.273Z,2.92
2022-11-02T02:32:13.463Z,3.10
2022-11-02T02:34:56.286Z,3.40
2022-11-02T02:37:36.920Z,2.95
2022-11-02T02:40:27.278Z,3.55
2022-11-02T02:43:04.714Z,3.10
2022-11-02T02:45:31.850Z,2.42
2022-11-02T02:48:06.777Z,3.17
2022-11-02T02:50:41.124Z,2.83
2022-11-02T02:53:10.192Z,2.65
2022-11-02T02:55:41.946Z,2.38
2022-11-02T02:58:16.710Z,2.15
2022-11-02T03:00:44.984Z,3.17
2022-11-02T03:03:20.430Z,2.70
2022-11-02T03:06:20.360Z,2.90
2022-11-02T03:09:16.477Z,2.72
2022-11-02T03:11:58.764Z,2.50
2022-11-02T03:14:25.955Z,2.60
2022-11-02T03:17:08.062Z,3.45
2022-11-02T03:19:55.700Z,2.65
2022-11-02T03:22:52.348Z,2.40
2022-11-02T03:25:36.719Z,2.97
2022-11-02T03:28:04.185Z,2.47
2022-11-02T03:30:39.180Z,3.28
2022-11-02T03:33:26.089Z,2.78
2022-11-02T03:35:58.773Z,3.10
2022-11-02T03:38:38.213Z,3.33
2022-11-02T03:41:07.150Z,2.92
2022-11-02T03:43:36.776Z,3.00
2022-11-02T03:46:09.001Z,3.55
2022-11-02T03:48:44.764Z,2.60
2022-11-02T03:51:15.623Z,2.28
2022-11-02T03:53:51.581Z,2.90
2022-11-02T03:56:32.548Z,3.58
2022-11-02T03:58:59.766Z,3.47
2022-11-02T04:01:29.401Z,2.97
2022-11-02T04:03:57.148Z,3.03
2022-11-02T04:06:25.910Z,3.30
2022-11-02T04:08:53.322Z,3.33
2022-11-02T04:11:38.884Z,3.78
2022-11-02T04:14:25.403Z,2.80
2022-11-02T04:17:15.398Z,3.58
2022-11-02T04:19:45.507Z,3.35
2022-11-02T04:22:34.419Z,2.80
2022-11-02T04:25:18.841Z,3.03
2022-11-02T04:27:49.392Z,2.55
2022-11-02T04:30:18.621Z,2.67
2022-11-02T04:33:06.183Z,3.30
2022-11-02T04:35:34.509Z,2.88
2022-11-02T04:38:20.621Z,2.88
2022-11-02T04:40:47.847Z,3.83
2022-11-02T04:43:14.938Z,3.33
2022-11-02T04:45:42.067Z,2.67
2022-11-02T04:48:10.159Z,2.85
2022-11-02T04:50:37.614Z,3.30
2022-11-02T04:53:07.570Z,2.80
2022-11-02T04:55:35.157Z,2.70
2022-11-02T04:58:02.811Z,2.70
2022-11-02T05:00:30.337Z,2.80
2022-11-02T05:03:00.831Z,3.20
2022-11-02T05:05:28.116Z,2.60
2022-11-02T05:07:55.277Z,3.20
2022-11-02T05:10:22.580Z,2.92
2022-11-02T05:12:56.177Z,3.15
2022-11-02T05:15:23.279Z,3.53
2022-11-02T05:17:50.391Z,3.63
2022-11-02T05:20:17.480Z,3.40
2022-11-02T05:22:45.145Z,2.90
2022-11-02T05:25:12.678Z,3.85
2022-11-02T05:27:40.050Z,4.03
2022-11-02T05:30:07.440Z,2.95
2022-11-02T05:32:34.603Z,3.83
2022-11-02T05:35:01.870Z,3.35
2022-11-02T05:37:28.963Z,3.13
2022-11-02T05:39:56.301Z,3.58
2022-11-02T05:42:23.404Z,3.25
2022-11-02T05:44:50.492Z,2.80
2022-11-02T05:47:17.625Z,3.40
2022-11-02T05:49:44.716Z,3.33
2022-11-02T05:52:12.000Z,3.53
2022-11-02T05:54:39.105Z,3.53
2022-11-02T05:57:06.147Z,2.75
2022-11-02T05:59:33.348Z,3.30
2022-11-02T06:02:00.502Z,2.95
2022-11-02T06:04:27.617Z,4.00
2022-11-02T06:06:55.069Z,3.60
2022-11-02T06:09:22.236Z,2.67
2022-11-02T06:11:49.327Z,4.32
2022-11-02T06:14:16.418Z,3.60
2022-11-02T06:16:43.451Z,2.95
2022-11-02T06:19:10.629Z,3.10
2022-11-02T06:21:37.752Z,2.67
2022-11-02T06:24:05.026Z,3.28
2022-11-02T06:26:32.138Z,3.05
2022-11-02T06:28:59.769Z,3.58
2022-11-02T06:31:27.023Z,2.92
2022-11-02T06:33:54.131Z,2.85
2022-11-02T06:36:21.216Z,3.17
2022-11-02T06:38:48.372Z,2.83
2022-11-02T06:41:15.482Z,3.97
2022-11-02T06:43:42.678Z,3.20
2022-11-02T06:46:09.776Z,3.13
2022-11-02T06:48:36.894Z,3.08
2022-11-02T06:51:05.368Z,3.03
2022-11-02T06:53:32.796Z,3.33
2022-11-02T06:56:00.910Z,3.45
2022-11-02T06:58:28.222Z,3.30
2022-11-02T07:01:04.031Z,3.17
2022-11-02T07:03:31.447Z,3.58
2022-11-02T07:05:58.663Z,3.17
2022-11-02T07:08:27.649Z,3.58
2022-11-02T07:10:55.023Z,2.97
2022-11-02T07:13:22.602Z,2.78
2022-11-02T07:15:53.326Z,4.38
2022-11-02T07:18:20.570Z,2.90
2022-11-02T07:20:47.834Z,3.20
2022-11-02T07:23:14.912Z,3.60
2022-11-02T07:25:41.995Z,2.80
2022-11-02T07:28:09.454Z,3.47
2022-11-02T07:30:36.500Z,3.50
2022-11-02T07:33:04.033Z,2.47
2022-11-02T07:35:31.385Z,3.20
2022-11-02T07:38:00.277Z,3.15
2022-11-02T07:40:28.685Z,3.28
2022-11-02T07:42:56.276Z,3.33
2022-11-02T07:45:24.166Z,3.10
2022-11-02T07:47:51.619Z,3.17
2022-11-02T07:50:21.318Z,3.42
2022-11-02T07:52:53.170Z,2.97
2022-11-02T07:55:23.470Z,2.90
2022-11-02T07:58:02.531Z,2.80
2022-11-02T08:00:33.247Z,2.60
2022-11-02T08:03:02.263Z,2.75
2022-11-02T08:05:31.165Z,2.83
2022-11-02T08:07:59.384Z,3.13
2022-11-02T08:10:27.407Z,2.15
2022-11-02T08:12:55.524Z,2.50
2022-11-02T08:15:22.605Z,2.40
2022-11-02T08:18:07.481Z,1.85
2022-11-02T08:20:36.512Z,2.15
2022-11-02T08:23:05.639Z,2.00
2022-11-02T08:25:33.005Z,1.77
2022-11-02T08:28:01.351Z,2.08
2022-11-02T08:30:30.052Z,2.22
2022-11-02T08:33:04.162Z,2.17
2022-11-02T08:35:31.514Z,2.17
2022-11-02T08:38:00.130Z,2.03
2022-11-02T08:40:28.062Z,3.08
2022-11-02T08:43:03.817Z,2.28
2022-11-02T08:45:53.808Z,2.40
2022-11-02T08:48:19.580Z,2.97
2022-11-02T08:50:48.355Z,3.47
2022-11-02T08:53:15.401Z,3.03
2022-11-02T08:55:42.502Z,3.20
2022-11-02T08:58:09.938Z,3.92
2022-11-02T09:00:37.165Z,4.45
2022-11-02T09:03:12.688Z,3.10
2022-11-02T09:05:44.158Z,3.75
2022-11-02T09:10:47.733Z,3.42
2022-11-02T09:13:18.545Z,3.53
2022-11-02T09:15:45.590Z,3.58
2022-11-02T09:18:12.671Z,3.45
2022-11-02T09:20:39.800Z,3.13
2022-11-02T09:23:07.061Z,3.53
2022-11-02T09:25:34.140Z,3.17
2022-11-02T09:28:01.351Z,3.05
2022-11-02T09:30:31.177Z,2.70
2022-11-02T09:33:00.117Z,2.88
2022-11-02T09:35:29.443Z,2.97
2022-11-02T09:37:56.811Z,2.67
2022-11-02T09:40:30.523Z,2.70
2022-11-02T09:43:15.967Z,2.92
2022-11-02T09:45:54.634Z,2.50
2022-11-02T09:48:30.205Z,2.13
2022-11-02T09:51:29.151Z,3.15
2022-11-02T09:54:13.274Z,3.38
2022-11-02T09:56:44.962Z,2.80
2022-11-02T09:59:13.742Z,2.70
2022-11-02T10:01:43.709Z,2.80
2022-11-02T10:04:30.914Z,2.67
2022-11-02T10:07:36.461Z,2.70
2022-11-02T10:10:22.710Z,2.50
2022-11-02T10:12:53.256Z,2.58
2022-11-02T10:15:35.747Z,2.37
2022-11-02T10:18:04.250Z,2.60
2022-11-02T10:20:48.822Z,2.67
2022-11-02T10:23:40.812Z,3.00
2022-11-02T10:26:18.512Z,2.90
2022-11-02T10:28:49.334Z,3.30
2022-11-02T10:31:25.640Z,3.40
2022-11-02T10:33:58.007Z,3.38
2022-11-02T10:36:57.392Z,3.28
2022-11-02T10:39:42.665Z,3.28
2022-11-02T10:42:18.718Z,2.80
2022-11-02T10:45:12.476Z,3.80
2022-11-02T10:48:04.607Z,3.20
2022-11-02T10:50:43.192Z,3.78
2022-11-02T10:56:24.659Z,3.15
2022-11-02T10:59:03.210Z,2.95
2022-11-02T11:01:32.440Z,2.65
2022-11-02T11:04:03.761Z,2.78
2022-11-02T11:06:42.695Z,3.38
2022-11-02T11:09:25.709Z,2.47
2022-11-02T11:12:20.984Z,2.50
2022-11-02T11:20:33.230Z,2.03
2022-11-02T11:23:18.534Z,2.40
2022-11-02T11:25:58.725Z,2.83
2022-11-02T11:28:41.134Z,2.47
2022-11-02T11:31:10.286Z,2.25
2022-11-02T11:33:52.406Z,2.63
2022-11-02T11:36:27.294Z,2.25
2022-11-02T11:38:58.896Z,2.28
2022-11-02T11:41:26.379Z,3.08
2022-11-02T11:43:54.022Z,2.58
2022-11-02T11:46:21.261Z,1.95
2022-11-02T11:48:54.928Z,1.95
2022-11-02T11:51:37.508Z,1.90
2022-11-02T11:54:20.524Z,1.95
2022-11-02T11:56:48.895Z,1.85
2022-11-02T11:59:44.249Z,2.03
2022-11-02T12:02:25.386Z,1.73
2022-11-02T12:04:58.885Z,1.52
2022-11-02T12:07:38.988Z,1.88
2022-11-02T12:10:39.828Z,1.80
2022-11-02T12:13:22.100Z,1.73
2022-11-02T12:16:20.041Z,1.17
2022-11-02T12:19:29.739Z,0.98
2022-11-02T12:22:17.423Z,1.42
2022-11-02T12:25:12.687Z,1.42
2022-11-02T12:27:49.814Z,1.27
2022-11-02T12:30:32.224Z,1.30
2022-11-02T12:33:19.891Z,1.17
2022-11-02T12:36:02.383Z,1.05
2022-11-02T12:39:00.377Z,0.90
2022-11-02T12:41:56.611Z,0.90
2022-11-02T12:44:38.594Z,1.10
2022-11-02T12:47:39.738Z,0.70
2022-11-02T12:50:31.041Z,0.70
2022-11-02T12:53:39.797Z,0.65
2022-11-02T12:56:13.185Z,1.10
2022-11-02T12:58:42.400Z,1.00
2022-11-02T13:01:32.414Z,0.60
2022-11-02T13:04:14.834Z,0.82
2022-11-02T13:06:48.944Z,0.70
2022-11-02T13:09:38.529Z,0.80
2022-11-02T13:12:13.051Z,0.68
2022-11-02T13:14:45.473Z,0.70
2022-11-02T13:17:57.737Z,0.85
2022-11-02T13:20:39.772Z,0.70
2022-11-02T13:26:02.301Z,0.65
2022-11-02T13:28:47.662Z,1.55
2022-11-02T13:31:28.662Z,0.70
2022-11-02T13:34:00.579Z,0.80
2022-11-02T13:36:28.189Z,0.70
2022-11-02T13:39:17.956Z,0.80
2022-11-02T13:42:11.313Z,0.70
2022-11-02T13:45:15.818Z,0.68
2022-11-02T13:48:01.633Z,1.38
2022-11-02T13:50:33.021Z,0.65
2022-11-02T13:53:05.368Z,0.80
2022-11-02T13:55:55.969Z,0.57
2022-11-02T13:58:32.836Z,0.85
2022-11-02T14:01:03.358Z,0.60
2022-11-02T14:03:57.464Z,0.73
2022-11-02T14:06:30.313Z,1.05
2022-11-02T14:09:04.608Z,0.90
2022-11-02T14:11:48.409Z,0.90
2022-11-02T14:14:22.017Z,0.50
2022-11-02T14:16:49.106Z,0.70
2022-11-02T14:19:20.759Z,0.70
2022-11-02T14:22:00.888Z,1.27
2022-11-02T14:24:34.737Z,0.80
2022-11-02T14:27:29.031Z,1.00
2022-11-02T14:29:56.602Z,0.95
2022-11-02T14:32:42.983Z,1.13
2022-11-02T14:35:34.945Z,1.00
2022-11-02T14:38:35.638Z,0.70
2022-11-02T14:41:14.715Z,1.40
2022-11-02T14:44:04.904Z,0.85
2022-11-02T14:46:47.739Z,0.88
2022-11-02T14:49:25.072Z,1.05
2022-11-02T14:52:21.223Z,1.05
2022-11-02T14:55:01.652Z,1.30
2022-11-02T14:57:37.669Z,0.88
2022-11-02T15:00:18.230Z,1.20
2022-11-02T15:02:46.024Z,1.10
2022-11-02T15:05:35.050Z,1.40
2022-11-02T15:08:28.207Z,0.90
2022-11-02T15:10:55.568Z,1.30
2022-11-02T15:13:32.791Z,0.80
2022-11-02T15:16:00.045Z,1.00
2022-11-02T15:18:29.853Z,1.00
2022-11-02T15:21:12.238Z,1.20
2022-11-02T15:23:51.022Z,1.17
2022-11-02T15:26:57.298Z,0.98
2022-11-02T15:29:27.468Z,1.20
2022-11-02T15:31:57.643Z,0.77
2022-11-02T15:34:40.300Z,1.10
2022-11-02T15:37:09.046Z,0.80
2022-11-02T15:39:36.328Z,1.23
2022-11-02T15:42:13.400Z,1.63
2022-11-02T15:44:48.925Z,1.42
2022-11-02T15:47:49.482Z,1.42
2022-11-02T15:50:39.740Z,1.33
2022-11-02T15:53:48.258Z,1.10
2022-11-02T15:56:21.270Z,1.40
2022-11-02T15:58:48.477Z,1.00
2022-11-02T16:01:25.404Z,1.33
2022-11-02T16:04:02.720Z,1.48
2022-11-02T16:06:36.910Z,1.15
2022-11-02T16:09:37.742Z,1.80
2022-11-02T16:12:24.794Z,1.65
2022-11-02T16:15:11.279Z,2.67
2022-11-02T16:17:39.098Z,1.50
2022-11-02T16:20:34.059Z,1.38
2022-11-02T16:23:06.166Z,1.05
2022-11-02T16:25:36.749Z,1.23
2022-11-02T16:28:28.974Z,1.10
2022-11-02T16:31:19.458Z,0.93
2022-11-02T16:34:00.189Z,1.10
2022-11-02T16:36:31.221Z,1.13
2022-11-02T16:38:58.248Z,0.90
2022-11-02T16:41:34.398Z,1.02
2022-11-02T16:44:16.471Z,0.98
2022-11-02T16:46:53.394Z,1.20
2022-11-02T16:49:22.730Z,1.17
2022-11-02T16:52:00.591Z,1.92
2022-11-02T16:54:41.023Z,1.80
2022-11-02T16:57:19.765Z,1.80
2022-11-02T16:59:54.431Z,2.00
2022-11-02T17:02:40.684Z,1.92
2022-11-02T17:05:20.508Z,1.88
2022-11-02T17:07:57.924Z,2.00
2022-11-02T17:10:28.493Z,1.23
2022-11-02T17:12:56.841Z,1.43
2022-11-02T17:15:27.138Z,1.70
2022-11-02T17:18:23.194Z,1.60
2022-11-02T17:21:13.381Z,1.48
2022-11-02T17:23:41.600Z,1.40
2022-11-02T17:26:26.611Z,1.50
2022-11-02T17:28:55.247Z,1.92
2022-11-02T17:31:38.708Z,1.20
2022-11-02T17:34:15.042Z,1.38
2022-11-02T17:36:50.072Z,1.67
2022-11-02T17:39:19.644Z,1.75
2022-11-02T17:42:13.049Z,1.63
2022-11-02T17:44:41.616Z,1.67
2022-11-02T17:47:15.827Z,1.95
2022-11-02T17:49:43.086Z,1.40
2022-11-02T17:52:16.774Z,1.58
2022-11-02T17:54:43.904Z,1.23
2022-11-02T17:57:15.345Z,1.63
2022-11-02T18:02:13.752Z,1.80
2022-11-02T18:04:41.063Z,1.58
2022-11-02T18:07:08.257Z,1.88
2022-11-02T18:09:35.597Z,1.80
2022-11-02T18:12:02.741Z,1.92
2022-11-02T18:14:29.850Z,1.77
2022-11-02T18:16:57.107Z,1.85
2022-11-02T18:19:24.249Z,1.90
2022-11-02T18:21:54.534Z,2.45
2022-11-02T18:24:21.888Z,1.77
2022-11-02T18:26:49.162Z,1.50
2022-11-02T18:29:16.343Z,2.05
2022-11-02T18:31:43.669Z,1.70
2022-11-02T18:34:10.936Z,2.00
2022-11-02T18:36:39.902Z,2.00
2022-11-02T18:39:07.072Z,2.60
2022-11-02T18:41:37.107Z,2.15
2022-11-02T18:44:11.978Z,2.13
2022-11-02T18:46:42.116Z,2.30
2022-11-02T18:49:09.449Z,1.88
2022-11-02T18:51:36.525Z,2.38
2022-11-02T18:54:06.077Z,2.45
2022-11-02T18:56:33.472Z,1.83
2022-11-02T18:59:00.732Z,2.47
2022-11-02T19:01:29.032Z,2.00
2022-11-02T19:04:00.662Z,2.22
2022-11-02T19:09:18.636Z,1.45
2022-11-02T19:11:52.946Z,2.28
2022-11-02T19:14:21.729Z,2.20
2022-11-02T19:16:49.156Z,2.33
2022-11-02T19:19:16.332Z,2.15
2022-11-02T19:21:43.529Z,2.70
2022-11-02T19:24:10.600Z,2.50
2022-11-02T19:26:37.920Z,2.85
2022-11-02T19:29:06.574Z,2.28
2022-11-02T19:31:35.551Z,2.70
2022-11-02T19:34:03.191Z,2.15
2022-11-02T19:36:30.577Z,2.28
2022-11-02T19:38:59.673Z,2.03
2022-11-02T19:41:26.858Z,1.73
2022-11-02T19:43:54.247Z,2.13
2022-11-02T19:46:22.624Z,2.10
2022-11-02T19:48:49.886Z,2.60
2022-11-02T19:51:22.562Z,3.10
2022-11-02T19:53:52.700Z,2.05
2022-11-02T19:56:20.935Z,1.83
2022-11-02T19:58:50.088Z,2.28
2022-11-02T20:01:18.461Z,2.08
2022-11-02T20:03:49.343Z,2.45
2022-11-02T20:06:23.561Z,3.03
2022-11-02T20:08:54.363Z,2.42
2022-11-02T20:11:21.798Z,2.75
2022-11-02T20:13:50.363Z,3.13
2022-11-02T20:16:19.765Z,2.33
2022-11-02T20:18:49.758Z,2.55
2022-11-02T20:21:26.859Z,2.45
2022-11-02T20:23:58.280Z,2.00
2022-11-02T20:26:28.420Z,2.10
2022-11-02T20:28:55.986Z,2.15
2022-11-02T20:31:26.727Z,1.98
2022-11-02T20:33:54.242Z,2.22
2022-11-02T20:36:21.400Z,2.90
2022-11-02T20:38:49.485Z,2.08
2022-11-02T20:41:19.915Z,1.98
2022-11-02T20:43:49.136Z,1.98
2022-11-02T20:46:39.927Z,2.20
2022-11-02T20:51:53.115Z,1.85
2022-11-02T20:54:22.387Z,1.85
2022-11-02T20:56:50.418Z,2.53
2022-11-02T20:59:18.102Z,2.80
2022-11-02T21:01:45.792Z,2.40
2022-11-02T21:04:19.853Z,2.60
2022-11-02T21:06:50.951Z,2.70
2022-11-02T21:09:19.172Z,2.60
2022-11-02T21:12:05.097Z,1.73
2022-11-02T21:14:32.442Z,2.38
2022-11-02T21:16:59.612Z,2.05
2022-11-02T21:19:26.729Z,2.55
2022-11-02T21:21:59.099Z,2.50
2022-11-02T21:24:27.370Z,2.40
2022-11-02T21:26:54.708Z,2.03
2022-11-02T21:29:21.877Z,2.28
2022-11-02T21:31:49.320Z,2.17
2022-11-02T21:34:16.514Z,2.17
2022-11-02T21:36:43.609Z,1.90
2022-11-02T21:39:10.721Z,2.38
2022-11-02T21:41:39.142Z,2.03
2022-11-02T21:44:07.614Z,2.50
2022-11-02T21:46:35.480Z,2.08
2022-11-02T21:49:03.103Z,1.80
2022-11-02T21:51:30.587Z,2.42
2022-11-02T21:53:57.732Z,2.22
2022-11-02T21:56:27.387Z,2.17
2022-11-02T21:58:55.888Z,2.00
2022-11-02T22:01:44.460Z,2.38
2022-11-02T22:04:19.796Z,2.00
2022-11-02T22:06:47.331Z,1.90
2022-11-02T22:09:14.621Z,1.92
2022-11-02T22:11:42.120Z,1.73
2022-11-02T22:14:09.149Z,2.17
2022-11-02T22:16:38.589Z,1.98
2022-11-02T22:19:14.102Z,2.15
2022-11-02T22:21:43.626Z,1.85
2022-11-02T22:24:11.029Z,1.83
2022-11-02T22:26:39.164Z,1.88
2022-11-02T22:29:07.221Z,2.17
2022-11-02T22:31:40.230Z,2.28
2022-11-02T22:34:09.233Z,2.28
2022-11-02T22:36:37.620Z,2.00
2022-11-02T22:39:07.456Z,2.50
2022-11-02T22:41:48.247Z,1.85
2022-11-02T22:44:17.343Z,1.83
2022-11-02T22:46:47.070Z,1.90
2022-11-02T22:49:15.605Z,1.85
2022-11-02T22:51:45.457Z,2.30
2022-11-02T22:54:15.921Z,2.33
2022-11-02T22:56:44.263Z,2.13
2022-11-02T22:59:11.764Z,2.63
2022-11-02T23:01:39.711Z,2.30
2022-11-02T23:04:07.671Z,1.70
2022-11-02T23:06:38.990Z,2.50
2022-11-02T23:09:06.654Z,2.22
2022-11-02T23:11:36.829Z,2.08
2022-11-02T23:14:12.056Z,2.28
2022-11-02T23:16:42.292Z,1.98
2022-11-02T23:19:26.371Z,2.42
2022-11-02T23:22:21.126Z,2.33
2022-11-02T23:25:12.709Z,1.90
2022-11-02T23:28:10.157Z,2.20
2022-11-02T23:30:56.610Z,2.30
2022-11-02T23:33:27.823Z,2.10
2022-11-02T23:36:13.542Z,2.47
2022-11-02T23:39:04.103Z,1.70
2022-11-02T23:41:32.840Z,2.38
2022-11-02T23:44:12.751Z,2.00
2022-11-02T23:46:40.662Z,1.65
2022-11-02T23:49:08.181Z,2.30
2022-11-02T23:51:53.726Z,1.90
2022-11-02T23:54:39.233Z,2.58
2022-11-02T23:57:06.564Z,3.20
2022-11-02T23:59:33.591Z,2.30
